createdAt,value
2018-12-07T00:01:39.833Z,97740.91
2018-12-07T00:04:07.365Z,97748.68
2018-12-07T00:06:34.949Z,97750.94
2018-12-07T00:09:02.503Z,97751.17
2018-12-07T00:11:30.083Z,97743.88
2018-12-07T00:13:57.664Z,97732.70
2018-12-07T00:16:25.174Z,97742.98
2018-12-07T00:18:52.779Z,97738.45
2018-12-07T00:21:20.363Z,97734.19
2018-12-07T00:23:47.929Z,97733.19
2018-12-07T00:26:15.495Z,97727.55
2018-12-07T00:28:43.053Z,97728.41
2018-12-07T00:31:10.633Z,97725.52
2018-12-07T00:33:38.197Z,97731.18
2018-12-07T00:36:05.730Z,97721.66
2018-12-07T00:38:33.264Z,97718.86
2018-12-07T00:41:00.836Z,97710.19
2018-12-07T00:43:28.407Z,97713.70
2018-12-07T00:45:55.971Z,97723.09
2018-12-07T00:48:24.228Z,97723.73
2018-12-07T00:50:51.754Z,97724.87
2018-12-07T00:53:19.309Z,97721.59
2018-12-07T00:55:46.915Z,97718.30
2018-12-07T00:58:14.468Z,97716.81
2018-12-07T01:00:42.042Z,97713.45
2018-12-07T01:03:09.611Z,97720.09
2018-12-07T01:05:37.153Z,97720.22
2018-12-07T01:08:04.672Z,97724.34
2018-12-07T01:10:32.227Z,97723.73
2018-12-07T01:12:59.814Z,97735.38
2018-12-07T01:15:27.343Z,97722.05
2018-12-07T01:17:54.919Z,97725.56
2018-12-07T01:20:22.506Z,97723.54
2018-12-07T01:22:50.061Z,97721.80
2018-12-07T01:25:17.589Z,97722.53
2018-12-07T01:27:45.163Z,97714.52
2018-12-07T01:30:12.691Z,97719.67
2018-12-07T01:32:40.272Z,97711.55
2018-12-07T01:35:07.825Z,97702.88
2018-12-07T01:37:35.385Z,97705.02
2018-12-07T01:40:03.734Z,97700.13
2018-12-07T01:42:31.271Z,97701.98
2018-12-07T01:44:58.781Z,97702.88
2018-12-07T01:47:26.364Z,97699.36
2018-12-07T01:49:53.939Z,97700.02
2018-12-07T01:52:21.488Z,97699.47
2018-12-07T01:54:49.079Z,97696.45
2018-12-07T01:57:16.629Z,97690.17
2018-12-07T01:59:44.152Z,97682.64
2018-12-07T02:02:11.798Z,97679.25
2018-12-07T02:04:39.359Z,97669.09
2018-12-07T02:07:14.843Z,97669.45
2018-12-07T02:09:42.395Z,97668.09
2018-12-07T02:12:09.922Z,97665.86
2018-12-07T02:14:37.450Z,97656.56
2018-12-07T02:17:05.004Z,97657.33
2018-12-07T02:19:32.557Z,97648.42
2018-12-07T02:22:00.133Z,97650.17
2018-12-07T02:24:27.721Z,97648.29
2018-12-07T02:26:55.303Z,97648.52
2018-12-07T02:29:22.846Z,97645.13
2018-12-07T02:31:50.414Z,97645.23
2018-12-07T02:34:18.003Z,97643.98
2018-12-07T02:36:45.592Z,97637.33
2018-12-07T02:39:13.132Z,97637.59
2018-12-07T02:41:40.777Z,97639.07
2018-12-07T02:44:08.336Z,97632.91
2018-12-07T02:46:35.885Z,97631.28
2018-12-07T02:49:03.443Z,97625.48
2018-12-07T02:51:30.985Z,97625.59
2018-12-07T02:53:58.537Z,97621.83
2018-12-07T02:56:26.115Z,97620.58
2018-12-07T02:58:53.654Z,97619.17
2018-12-07T03:01:21.227Z,97615.89
2018-12-07T03:03:48.818Z,97615.16
2018-12-07T03:06:16.436Z,97613.02
2018-12-07T03:08:43.986Z,97611.38
2018-12-07T03:11:11.522Z,97611.50
2018-12-07T03:13:39.092Z,97602.19
2018-12-07T03:16:06.669Z,97404.61
2018-12-07T03:18:34.276Z,97600.79
2018-12-07T03:21:01.857Z,97598.17
2018-12-07T03:23:29.407Z,97592.00
2018-12-07T03:25:56.942Z,97591.00
2018-12-07T03:28:25.364Z,97595.55
2018-12-07T03:30:52.924Z,97585.87
2018-12-07T03:33:20.501Z,97582.50
2018-12-07T03:35:48.050Z,97581.03
2018-12-07T03:38:15.614Z,97578.88
2018-12-07T03:40:43.188Z,97576.11
2018-12-07T03:43:10.735Z,97571.72
2018-12-07T03:45:38.289Z,97576.63
2018-12-07T03:48:05.833Z,97579.03
2018-12-07T03:50:33.376Z,97574.78
2018-12-07T03:53:00.939Z,97572.38
2018-12-07T03:55:28.495Z,97567.84
2018-12-07T03:57:56.022Z,97527.58
2018-12-07T04:00:23.615Z,97564.88
2018-12-07T04:02:51.148Z,97556.53
2018-12-07T04:05:18.691Z,97563.30
2018-12-07T04:07:46.243Z,97558.64
2018-12-07T04:10:13.845Z,97549.26
2018-12-07T04:12:41.401Z,97540.50
2018-12-07T04:15:08.960Z,97540.91
2018-12-07T04:17:36.592Z,97537.26
2018-12-07T04:20:04.817Z,97532.72
2018-12-07T04:22:32.390Z,97541.88
2018-12-07T04:24:59.923Z,97535.22
2018-12-07T04:27:27.512Z,97539.10
2018-12-07T04:30:02.841Z,97538.44
2018-12-07T04:32:30.423Z,97542.84
2018-12-07T04:34:57.960Z,97545.16
2018-12-07T04:37:25.515Z,97540.25
2018-12-07T04:39:53.034Z,97535.75
2018-12-07T04:42:20.552Z,97536.71
2018-12-07T04:44:48.080Z,97536.86
2018-12-07T04:47:15.606Z,97534.45
2018-12-07T04:49:43.208Z,97528.80
2018-12-07T04:52:10.758Z,97528.92
2018-12-07T04:54:38.296Z,97526.52
2018-12-07T04:57:05.845Z,97526.92
2018-12-07T04:59:33.397Z,97523.27
2018-12-07T05:02:00.938Z,97518.72
2018-12-07T05:04:28.454Z,97517.36
2018-12-07T05:06:55.991Z,97514.84
2018-12-07T05:09:23.554Z,97515.95
2018-12-07T05:11:51.104Z,97511.41
2018-12-07T05:14:18.668Z,97510.75
2018-12-07T05:16:46.210Z,97511.84
2018-12-07T05:19:13.886Z,97512.22
2018-12-07T05:21:41.424Z,97517.76
2018-12-07T05:24:08.972Z,97514.47
2018-12-07T05:26:36.534Z,97511.19
2018-12-07T05:29:04.073Z,97518.83
2018-12-07T05:31:31.612Z,97507.27
2018-12-07T05:33:59.160Z,97512.03
2018-12-07T05:36:26.731Z,97510.47
2018-12-07T05:38:54.247Z,97510.00
2018-12-07T05:41:21.850Z,97498.95
2018-12-07T05:43:55.386Z,97512.98
2018-12-07T05:46:23.027Z,97510.00
2018-12-07T05:48:50.546Z,97511.36
2018-12-07T05:51:18.104Z,97470.53
2018-12-07T05:53:45.656Z,97511.84
2018-12-07T05:56:13.214Z,97502.67
2018-12-07T05:58:40.766Z,97510.69
2018-12-07T06:01:08.301Z,97509.44
2018-12-07T06:03:35.826Z,97505.97
2018-12-07T06:06:03.455Z,97505.86
2018-12-07T06:08:30.993Z,97498.80
2018-12-07T06:10:58.524Z,97499.95
2018-12-07T06:13:26.060Z,97502.57
2018-12-07T06:15:53.581Z,97500.94
2018-12-07T06:18:21.147Z,97500.64
2018-12-07T06:20:48.698Z,97496.66
2018-12-07T06:23:16.252Z,97497.76
2018-12-07T06:25:43.827Z,97500.64
2018-12-07T06:28:11.386Z,97488.08
2018-12-07T06:30:38.964Z,97490.33
2018-12-07T06:33:06.512Z,97491.33
2018-12-07T06:35:34.066Z,97480.39
2018-12-07T06:38:01.629Z,97488.30
2018-12-07T06:40:29.214Z,97485.31
2018-12-07T06:42:56.753Z,97443.60
2018-12-07T06:45:24.306Z,97483.79
2018-12-07T06:47:51.882Z,97484.27
2018-12-07T06:50:19.421Z,97475.73
2018-12-07T06:52:46.957Z,97472.86
2018-12-07T06:55:14.504Z,97470.72
2018-12-07T06:57:42.041Z,97467.83
2018-12-07T07:00:09.605Z,97466.58
2018-12-07T07:02:37.166Z,97469.45
2018-12-07T07:05:06.424Z,97464.44
2018-12-07T07:07:33.957Z,97463.07
2018-12-07T07:10:01.481Z,97466.84
2018-12-07T07:12:29.310Z,97466.47
2018-12-07T07:14:56.935Z,97466.09
2018-12-07T07:17:24.503Z,97464.52
2018-12-07T07:19:52.057Z,97457.46
2018-12-07T07:22:19.595Z,97454.17
2018-12-07T07:24:47.163Z,97453.11
2018-12-07T07:27:14.707Z,97448.34
2018-12-07T07:29:42.270Z,97446.98
2018-12-07T07:32:09.834Z,97435.67
2018-12-07T07:34:37.394Z,97431.43
2018-12-07T07:37:04.934Z,97353.80
2018-12-07T07:39:32.471Z,97425.26
2018-12-07T07:42:00.067Z,97421.08
2018-12-07T07:44:27.716Z,97418.88
2018-12-07T07:46:55.391Z,97427.36
2018-12-07T07:49:22.966Z,97425.73
2018-12-07T07:51:50.505Z,97424.00
2018-12-07T07:54:18.059Z,97423.44
2018-12-07T07:56:45.635Z,97422.29
2018-12-07T07:59:13.150Z,97417.00
2018-12-07T08:01:40.722Z,97418.63
2018-12-07T08:04:08.280Z,97410.83
2018-12-07T08:06:35.800Z,97416.17
2018-12-07T08:09:05.349Z,97410.47
2018-12-07T08:11:32.971Z,97408.48
2018-12-07T08:14:00.523Z,97407.76
2018-12-07T08:16:28.083Z,97397.44
2018-12-07T08:18:55.610Z,97405.39
2018-12-07T08:21:23.156Z,97405.51
2018-12-07T08:23:50.680Z,97406.44
2018-12-07T08:26:18.230Z,97397.75
2018-12-07T08:28:45.774Z,97395.16
2018-12-07T08:31:13.300Z,97389.97
2018-12-07T08:33:40.860Z,97389.39
2018-12-07T08:36:08.387Z,97380.99
2018-12-07T08:38:35.954Z,97377.42
2018-12-07T08:41:03.518Z,97380.14
2018-12-07T08:43:31.111Z,97377.05
2018-12-07T08:45:58.684Z,97379.02
2018-12-07T08:48:26.219Z,97376.19
2018-12-07T08:50:53.746Z,97372.63
2018-12-07T08:53:21.411Z,97335.52
2018-12-07T08:55:48.955Z,97372.06
2018-12-07T08:58:16.496Z,97365.78
2018-12-07T09:00:44.033Z,97367.98
2018-12-07T09:03:11.555Z,97374.52
2018-12-07T09:05:39.070Z,97369.37
2018-12-07T09:08:06.604Z,97369.47
2018-12-07T09:10:34.133Z,97366.80
2018-12-07T09:13:01.723Z,97363.31
2018-12-07T09:15:29.271Z,97364.86
2018-12-07T09:17:56.819Z,97364.50
2018-12-07T09:20:24.405Z,97360.61
2018-12-07T09:22:51.959Z,97358.69
2018-12-07T09:25:19.502Z,97357.72
2018-12-07T09:27:47.017Z,97354.55
2018-12-07T09:30:14.553Z,97354.83
2018-12-07T09:32:42.141Z,97348.04
2018-12-07T09:35:09.662Z,97341.94
2018-12-07T09:37:37.190Z,97343.01
2018-12-07T09:40:04.729Z,97339.30
2018-12-07T09:42:32.268Z,97326.61
2018-12-07T09:44:59.808Z,97314.02
2018-12-07T09:47:27.345Z,97313.78
2018-12-07T09:49:54.944Z,97301.18
2018-12-07T09:52:22.497Z,97300.76
2018-12-07T09:54:50.049Z,97295.11
2018-12-07T09:57:17.600Z,97294.72
2018-12-07T09:59:45.136Z,97288.78
2018-12-07T10:02:12.668Z,97284.75
2018-12-07T10:04:40.228Z,97281.42
2018-12-07T10:07:07.801Z,97279.55
2018-12-07T10:09:35.346Z,97276.89
2018-12-07T10:12:02.891Z,97273.23
2018-12-07T10:14:30.431Z,97271.73
2018-12-07T10:16:57.951Z,97259.71
2018-12-07T10:19:25.491Z,97248.37
2018-12-07T10:21:53.048Z,97244.45
2018-12-07T10:24:20.602Z,97238.95
2018-12-07T10:26:48.141Z,97239.20
2018-12-07T10:29:15.755Z,97232.05
2018-12-07T10:31:43.461Z,97225.65
2018-12-07T10:34:11.018Z,97217.74
2018-12-07T10:36:38.557Z,97216.65
2018-12-07T10:39:06.108Z,97205.03
2018-12-07T10:41:33.653Z,97201.67
2018-12-07T10:44:01.220Z,97196.62
2018-12-07T10:46:28.792Z,97184.63
2018-12-07T10:48:56.347Z,97183.29
2018-12-07T10:51:23.905Z,97183.45
2018-12-07T10:53:51.472Z,97179.59
2018-12-07T10:56:19.026Z,97191.16
2018-12-07T10:58:46.578Z,97179.25
2018-12-07T11:01:19.770Z,97179.88
2018-12-07T11:03:53.006Z,97176.02
2018-12-07T11:06:26.262Z,97173.33
2018-12-07T11:09:03.181Z,97163.94
2018-12-07T11:11:36.333Z,97159.06
2018-12-07T11:14:09.396Z,97151.19
2018-12-07T11:16:42.443Z,97147.92
2018-12-07T11:22:23.487Z,97138.75
2018-12-07T11:24:56.558Z,97136.48
2018-12-07T11:27:29.651Z,97133.28
2018-12-07T11:30:05.256Z,97138.74
2018-12-07T11:32:35.422Z,97122.17
2018-12-07T11:35:04.970Z,97119.27
2018-12-07T11:37:32.520Z,97111.14
2018-12-07T11:40:00.076Z,97105.23
2018-12-07T11:42:27.590Z,97097.90
2018-12-07T11:44:55.141Z,97094.13
2018-12-07T11:47:22.709Z,97081.89
2018-12-07T11:49:50.286Z,97080.41
2018-12-07T11:52:17.845Z,97075.97
2018-12-07T11:54:45.439Z,97072.60
2018-12-07T11:57:12.990Z,97069.28
2018-12-07T11:59:40.561Z,97062.02
2018-12-07T12:02:08.110Z,97056.97
2018-12-07T12:04:35.685Z,97054.13
2018-12-07T12:07:03.237Z,97040.24
2018-12-07T12:09:30.775Z,97039.05
2018-12-07T12:11:58.349Z,97033.92
2018-12-07T12:14:25.949Z,97027.84
2018-12-07T12:16:53.515Z,97029.98
2018-12-07T12:19:21.062Z,97020.98
2018-12-07T12:21:48.632Z,97013.34
2018-12-07T12:24:16.173Z,97009.86
2018-12-07T12:26:43.713Z,97001.86
2018-12-07T12:29:11.246Z,96993.41
2018-12-07T12:31:38.797Z,96986.32
2018-12-07T12:34:06.374Z,96972.16
2018-12-07T12:36:33.943Z,96958.33
2018-12-07T12:39:01.508Z,96957.44
2018-12-07T12:41:29.078Z,96954.47
2018-12-07T12:43:56.633Z,96946.60
2018-12-07T12:46:24.194Z,96937.73
2018-12-07T12:48:51.779Z,96926.78
2018-12-07T12:51:19.348Z,96933.84
2018-12-07T12:53:46.897Z,96922.22
2018-12-07T12:56:14.484Z,96922.83
2018-12-07T12:58:42.034Z,96919.48
2018-12-07T13:01:09.664Z,96908.91
2018-12-07T13:03:37.216Z,96908.88
2018-12-07T13:06:04.755Z,96906.20
2018-12-07T13:08:32.331Z,96899.43
2018-12-07T13:10:59.855Z,96900.66
2018-12-07T13:13:27.433Z,96901.42
2018-12-07T13:15:55.002Z,96895.59
2018-12-07T13:18:22.553Z,96898.29
2018-12-07T13:20:50.128Z,96896.42
2018-12-07T13:23:17.707Z,96894.19
2018-12-07T13:25:45.260Z,96892.72
2018-12-07T13:28:12.804Z,96885.94
2018-12-07T13:30:40.380Z,96890.92
2018-12-07T13:33:07.967Z,96889.16
2018-12-07T13:35:35.545Z,96891.67
2018-12-07T13:38:03.111Z,96886.41
2018-12-07T13:40:30.671Z,96881.94
2018-12-07T13:42:58.375Z,96882.03
2018-12-07T13:45:26.107Z,96884.02
2018-12-07T13:47:53.723Z,96882.78
2018-12-07T13:50:26.890Z,96876.16
2018-12-07T13:52:54.661Z,96874.91
2018-12-07T13:55:22.316Z,96881.95
2018-12-07T13:57:50.112Z,96867.84
2018-12-07T14:00:17.912Z,96865.93
2018-12-07T14:02:45.678Z,96859.02
2018-12-07T14:05:13.300Z,96855.66
2018-12-07T14:07:41.054Z,96852.91
2018-12-07T14:10:08.612Z,96851.80
2018-12-07T14:12:36.190Z,96849.77
2018-12-07T14:15:04.250Z,96849.94
2018-12-07T14:17:31.881Z,96835.09
2018-12-07T14:19:59.589Z,96832.12
2018-12-07T14:22:27.291Z,96836.86
2018-12-07T14:24:54.942Z,96843.31
2018-12-07T14:27:22.733Z,96832.77
2018-12-07T14:29:50.517Z,96832.16
2018-12-07T14:32:18.321Z,96826.61
2018-12-07T14:34:46.029Z,96828.75
2018-12-07T14:37:13.693Z,96829.78
2018-12-07T14:39:41.371Z,96827.26
2018-12-07T14:42:09.075Z,96820.95
2018-12-07T14:44:36.881Z,96815.45
2018-12-07T14:47:04.865Z,96801.34
2018-12-07T14:49:34.646Z,96801.50
2018-12-07T14:52:02.454Z,96793.63
2018-12-07T14:54:30.178Z,96777.51
2018-12-07T14:56:57.847Z,96782.89
2018-12-07T14:59:25.460Z,96807.14
2018-12-07T15:01:53.158Z,96804.16
2018-12-07T15:04:20.975Z,96803.59
2018-12-07T15:06:48.745Z,96794.79
2018-12-07T15:09:16.568Z,96785.09
2018-12-07T15:11:44.249Z,96772.41
2018-12-07T15:14:12.024Z,96774.77
2018-12-07T15:16:39.729Z,96754.77
2018-12-07T15:19:07.350Z,96741.05
2018-12-07T15:21:35.007Z,96733.67
2018-12-07T15:24:02.788Z,96714.28
2018-12-07T15:26:30.433Z,96712.55
2018-12-07T15:28:58.109Z,96691.70
2018-12-07T15:31:25.646Z,96702.40
2018-12-07T15:33:53.201Z,96694.60
2018-12-07T15:36:20.779Z,96681.16
2018-12-07T15:38:48.362Z,96664.94
2018-12-07T15:41:16.383Z,96661.16
2018-12-07T15:43:44.220Z,96675.66
2018-12-07T15:46:11.970Z,96661.17
2018-12-07T15:48:39.770Z,96668.25
2018-12-07T15:51:07.444Z,96666.98
2018-12-07T15:53:35.162Z,96664.47
2018-12-07T15:56:02.997Z,96645.27
2018-12-07T15:58:30.576Z,96612.71
2018-12-07T16:00:58.167Z,96621.27
2018-12-07T16:03:25.890Z,96620.16
2018-12-07T16:05:53.527Z,96631.83
2018-12-07T16:08:24.936Z,96603.51
2018-12-07T16:10:50.902Z,96601.30
2018-12-07T16:13:18.678Z,96621.25
2018-12-07T16:15:46.873Z,96617.97
2018-12-07T16:18:14.693Z,96611.89
2018-12-07T16:20:42.512Z,96613.33
2018-12-07T16:23:10.434Z,96609.77
2018-12-07T16:25:38.111Z,96606.00
2018-12-07T16:28:05.905Z,96581.25
2018-12-07T16:30:33.616Z,96612.83
2018-12-07T16:33:01.288Z,96605.05
2018-12-07T16:35:29.002Z,96591.42
2018-12-07T16:37:56.747Z,96593.39
2018-12-07T16:40:24.562Z,96609.95
2018-12-07T16:42:52.161Z,96602.63
2018-12-07T16:45:19.819Z,96604.52
2018-12-07T16:47:47.608Z,96591.61
2018-12-07T16:50:15.473Z,96567.95
2018-12-07T16:52:43.276Z,96563.30
2018-12-07T16:55:11.058Z,96562.34
2018-12-07T16:57:38.724Z,96564.69
2018-12-07T17:00:07.857Z,96573.89
2018-12-07T17:02:35.642Z,96572.84
2018-12-07T17:05:03.660Z,96579.92
2018-12-07T17:07:31.494Z,96566.02
2018-12-07T17:09:59.086Z,96571.17
2018-12-07T17:12:26.983Z,96566.36
2018-12-07T17:14:54.639Z,96570.29
2018-12-07T17:17:22.396Z,96565.64
2018-12-07T17:19:50.001Z,96481.71
2018-12-07T17:22:17.846Z,96566.13
2018-12-07T17:24:45.547Z,96567.83
2018-12-07T17:27:13.150Z,96572.18
2018-12-07T17:29:40.802Z,96567.40
2018-12-07T17:32:08.458Z,96566.14
2018-12-07T17:34:36.502Z,96560.70
2018-12-07T17:37:04.446Z,96560.07
2018-12-07T17:39:32.252Z,96558.73
2018-12-07T17:41:59.810Z,96560.19
2018-12-07T17:44:27.413Z,96564.48
2018-12-07T17:46:55.068Z,96563.14
2018-12-07T17:49:22.873Z,96571.25
2018-12-07T17:51:50.578Z,96570.53
2018-12-07T17:54:18.420Z,96570.06
2018-12-07T17:56:46.172Z,96573.65
2018-12-07T17:59:13.875Z,96570.09
2018-12-07T18:01:41.459Z,96556.27
2018-12-07T18:04:09.002Z,96557.77
2018-12-07T18:06:36.867Z,96550.52
2018-12-07T18:09:07.054Z,96555.97
2018-12-07T18:11:34.707Z,96555.20
2018-12-07T18:14:02.656Z,96537.88
2018-12-07T18:16:30.454Z,96530.75
2018-12-07T18:18:58.204Z,96532.05
2018-12-07T18:21:25.872Z,96550.17
2018-12-07T18:23:53.702Z,96543.43
2018-12-07T18:26:21.430Z,96539.53
2018-12-07T18:28:49.001Z,96540.06
2018-12-07T18:31:16.948Z,96540.33
2018-12-07T18:33:44.665Z,96546.31
2018-12-07T18:36:12.257Z,96547.02
2018-12-07T18:38:40.405Z,96534.23
2018-12-07T18:41:08.329Z,96531.17
2018-12-07T18:43:36.094Z,96531.96
2018-12-07T18:46:03.884Z,96523.12
2018-12-07T18:48:31.733Z,96512.08
2018-12-07T18:50:59.301Z,96507.78
2018-12-07T18:53:27.113Z,96510.95
2018-12-07T18:55:54.839Z,96506.17
2018-12-07T18:58:22.543Z,96514.07
2018-12-07T19:00:50.317Z,96517.05
2018-12-07T19:03:18.180Z,96508.27
2018-12-07T19:05:45.974Z,96509.05
2018-12-07T19:08:13.876Z,96517.73
2018-12-07T19:10:41.568Z,96523.17
2018-12-07T19:13:09.213Z,96515.34
2018-12-07T19:15:36.861Z,96348.70
2018-12-07T19:18:04.552Z,96513.52
2018-12-07T19:20:32.302Z,96515.95
2018-12-07T19:23:00.199Z,96495.89
2018-12-07T19:25:28.016Z,96498.81
2018-12-07T19:27:55.805Z,96502.39
2018-12-07T19:30:23.550Z,96513.67
2018-12-07T19:32:51.194Z,96502.50
2018-12-07T19:35:19.047Z,96502.92
2018-12-07T19:37:46.809Z,96507.84
2018-12-07T19:40:14.496Z,96510.54
2018-12-07T19:42:42.297Z,96506.78
2018-12-07T19:45:10.077Z,96517.18
2018-12-07T19:47:37.890Z,96529.70
2018-12-07T19:50:06.780Z,96096.75
2018-12-07T19:52:34.479Z,96528.95
2018-12-07T19:55:02.352Z,96524.03
2018-12-07T19:57:30.200Z,96509.75
2018-12-07T19:59:58.022Z,96496.16
2018-12-07T20:02:25.667Z,96490.86
2018-12-07T20:04:53.438Z,96486.54
2018-12-07T20:07:21.303Z,96487.80
2018-12-07T20:09:48.932Z,96491.33
2018-12-07T20:12:16.639Z,96490.84
2018-12-07T20:14:44.333Z,96505.75
2018-12-07T20:17:12.043Z,96503.05
2018-12-07T20:19:39.746Z,96503.60
2018-12-07T20:22:07.360Z,96502.84
2018-12-07T20:24:34.971Z,96502.05
2018-12-07T20:27:02.837Z,96526.70
2018-12-07T20:29:30.985Z,96500.64
2018-12-07T20:31:58.806Z,96500.73
2018-12-07T20:34:26.547Z,96373.80
2018-12-07T20:36:54.144Z,96498.66
2018-12-07T20:39:22.179Z,96505.20
2018-12-07T20:41:49.840Z,96505.18
2018-12-07T20:44:17.440Z,96502.95
2018-12-07T20:46:45.156Z,96500.54
2018-12-07T20:49:12.747Z,96504.21
2018-12-07T20:51:40.462Z,96492.55
2018-12-07T20:54:08.056Z,96268.01
2018-12-07T20:56:35.915Z,96480.58
2018-12-07T20:59:03.777Z,96470.28
2018-12-07T21:01:31.799Z,96463.27
2018-12-07T21:04:20.910Z,96464.52
2018-12-07T21:07:21.926Z,96453.70
2018-12-07T21:09:52.657Z,96461.48
2018-12-07T21:15:39.886Z,96430.68
2018-12-07T21:18:07.734Z,96424.20
2018-12-07T21:20:35.765Z,96414.46
2018-12-07T21:23:03.482Z,96411.75
2018-12-07T21:25:31.840Z,96410.11
2018-12-07T21:27:59.749Z,96410.66
2018-12-07T21:33:27.820Z,96415.77
2018-12-07T21:39:17.629Z,96415.03
2018-12-07T21:41:45.294Z,96411.34
2018-12-07T21:44:13.041Z,96412.22
2018-12-07T21:46:40.766Z,96412.48
2018-12-07T21:49:08.402Z,96413.52
2018-12-07T21:51:45.920Z,96419.50
2018-12-07T21:54:13.641Z,96417.71
2018-12-07T21:56:41.358Z,96426.91
2018-12-07T21:59:09.096Z,96430.84
2018-12-07T22:01:36.958Z,96450.84
2018-12-07T22:04:04.832Z,96436.16
2018-12-07T22:06:32.531Z,96447.63
2018-12-07T22:09:00.398Z,96464.02
2018-12-07T22:11:28.276Z,96474.77
2018-12-07T22:13:55.913Z,96488.57
2018-12-07T22:16:23.470Z,96498.52
2018-12-07T22:18:51.084Z,96503.11
2018-12-07T22:21:18.900Z,96555.81
2018-12-07T22:23:46.559Z,96517.91
2018-12-07T22:26:14.329Z,96506.28
2018-12-07T22:28:41.921Z,96515.59
2018-12-07T22:31:09.688Z,96533.48
2018-12-07T22:33:37.474Z,96526.09
2018-12-07T22:36:05.195Z,96529.48
2018-12-07T22:38:32.882Z,96534.14
2018-12-07T22:41:00.561Z,96533.30
2018-12-07T22:43:28.250Z,96534.93
2018-12-07T22:45:55.781Z,96533.69
2018-12-07T22:48:23.530Z,96528.53
2018-12-07T22:50:51.182Z,96533.27
2018-12-07T22:53:18.748Z,96540.98
2018-12-07T22:55:46.306Z,96538.20
2018-12-07T22:58:13.894Z,96540.33
2018-12-07T23:00:43.450Z,96532.53
2018-12-07T23:03:11.001Z,96549.60
2018-12-07T23:05:38.584Z,96553.77
2018-12-07T23:08:06.134Z,96541.05
2018-12-07T23:10:33.723Z,96562.44
2018-12-07T23:13:01.224Z,96569.44
2018-12-07T23:15:28.800Z,96575.14
2018-12-07T23:17:56.350Z,96599.42
2018-12-07T23:20:23.889Z,96613.75
2018-12-07T23:22:51.447Z,96604.80
2018-12-07T23:25:18.961Z,96594.87
2018-12-07T23:27:46.559Z,96611.07
2018-12-07T23:30:14.158Z,96608.47
2018-12-07T23:32:41.749Z,96603.44
2018-12-07T23:35:09.331Z,96608.16
2018-12-07T23:37:36.861Z,96599.97
2018-12-07T23:40:04.891Z,96622.11
2018-12-07T23:42:32.452Z,96634.33
2018-12-07T23:44:59.985Z,96648.53
2018-12-07T23:47:27.509Z,96670.95
2018-12-07T23:49:55.105Z,96661.99
2018-12-07T23:52:22.666Z,96642.65
2018-12-07T23:54:50.234Z,96648.44
2018-12-07T23:57:17.784Z,96642.48
2018-12-07T23:59:45.343Z,96648.94
